Terminal Aerodrome Forecast
Issued by NWS

Home | Current Version | Previous Version | Text Only | Print | Product List | Glossary On
Versions: 1 2 3 4 5 6 7 8 9 10 11 12 13 14 15 16 17
449
FTUS42 KTAE 232320
TAFDHN
TAF
KDHN 232320Z 2400/2424 22008KT P6SM SCT030
     FM240700 21006KT 5SM BR BKN005
     FM241400 26008KT P6SM SCT015 BKN035
     FM241800 26009KT 3SM TSRA BKN025CB=

USA.gov is the U.S. government's official web portal to all federal, state and local government web resources and services.